sensor_id;sensor_type;location;lat;lon;timestamp;P1;durP1;ratioP1;P2;durP2;ratioP2
36205;SDS011;22242;48.796;9.930;2023-03-16T00:00:09;7.85;;;5.07;;
36205;SDS011;22242;48.796;9.930;2023-03-16T00:02:38;9.45;;;4.57;;
36205;SDS011;22242;48.796;9.930;2023-03-16T00:05:06;6.85;;;4.32;;
36205;SDS011;22242;48.796;9.930;2023-03-16T00:07:34;7.22;;;4.22;;
36205;SDS011;22242;48.796;9.930;2023-03-16T00:10:01;6.50;;;4.80;;
36205;SDS011;22242;48.796;9.930;2023-03-16T00:12:29;6.57;;;4.20;;
36205;SDS011;22242;48.796;9.930;2023-03-16T00:15:00;6.22;;;4.13;;
36205;SDS011;22242;48.796;9.930;2023-03-16T00:17:29;5.93;;;4.45;;
36205;SDS011;22242;48.796;9.930;2023-03-16T00:20:11;7.93;;;4.57;;
36205;SDS011;22242;48.796;9.930;2023-03-16T00:22:38;7.47;;;4.43;;
36205;SDS011;22242;48.796;9.930;2023-03-16T00:25:07;7.03;;;4.00;;
36205;SDS011;22242;48.796;9.930;2023-03-16T00:27:34;6.05;;;4.10;;
36205;SDS011;22242;48.796;9.930;2023-03-16T00:30:03;6.90;;;3.95;;
36205;SDS011;22242;48.796;9.930;2023-03-16T00:32:32;4.43;;;3.50;;
36205;SDS011;22242;48.796;9.930;2023-03-16T00:35:00;5.15;;;4.03;;
36205;SDS011;22242;48.796;9.930;2023-03-16T00:37:29;9.23;;;3.83;;
36205;SDS011;22242;48.796;9.930;2023-03-16T00:39:58;6.10;;;3.72;;
36205;SDS011;22242;48.796;9.930;2023-03-16T00:42:27;5.40;;;4.00;;
36205;SDS011;22242;48.796;9.930;2023-03-16T00:44:58;4.93;;;3.75;;
36205;SDS011;22242;48.796;9.930;2023-03-16T00:47:28;8.77;;;4.05;;
36205;SDS011;22242;48.796;9.930;2023-03-16T00:49:57;5.55;;;4.05;;
36205;SDS011;22242;48.796;9.930;2023-03-16T00:52:26;7.22;;;4.05;;
36205;SDS011;22242;48.796;9.930;2023-03-16T00:54:54;7.60;;;4.38;;
36205;SDS011;22242;48.796;9.930;2023-03-16T00:57:23;6.10;;;3.80;;
36205;SDS011;22242;48.796;9.930;2023-03-16T00:59:52;7.25;;;4.38;;
36205;SDS011;22242;48.796;9.930;2023-03-16T01:02:19;5.00;;;3.75;;
36205;SDS011;22242;48.796;9.930;2023-03-16T01:04:50;10.00;;;4.60;;
36205;SDS011;22242;48.796;9.930;2023-03-16T01:07:18;8.00;;;3.90;;
36205;SDS011;22242;48.796;9.930;2023-03-16T01:09:46;5.43;;;4.00;;
36205;SDS011;22242;48.796;9.930;2023-03-16T01:12:14;5.40;;;3.90;;
36205;SDS011;22242;48.796;9.930;2023-03-16T01:14:43;5.78;;;3.75;;
36205;SDS011;22242;48.796;9.930;2023-03-16T01:17:11;6.53;;;4.10;;
36205;SDS011;22242;48.796;9.930;2023-03-16T01:19:41;5.10;;;3.45;;
36205;SDS011;22242;48.796;9.930;2023-03-16T01:22:09;8.10;;;4.45;;
36205;SDS011;22242;48.796;9.930;2023-03-16T01:24:37;6.38;;;4.00;;
36205;SDS011;22242;48.796;9.930;2023-03-16T01:27:06;5.07;;;3.80;;
36205;SDS011;22242;48.796;9.930;2023-03-16T01:29:34;5.82;;;4.03;;
36205;SDS011;22242;48.796;9.930;2023-03-16T01:32:02;4.70;;;3.30;;
36205;SDS011;22242;48.796;9.930;2023-03-16T01:34:31;5.85;;;4.28;;
36205;SDS011;22242;48.796;9.930;2023-03-16T01:36:59;5.75;;;3.67;;
36205;SDS011;22242;48.796;9.930;2023-03-16T01:39:40;6.15;;;4.03;;
36205;SDS011;22242;48.796;9.930;2023-03-16T01:42:08;6.60;;;3.97;;
36205;SDS011;22242;48.796;9.930;2023-03-16T01:44:49;4.45;;;3.63;;
36205;SDS011;22242;48.796;9.930;2023-03-16T01:47:19;7.45;;;4.60;;
36205;SDS011;22242;48.796;9.930;2023-03-16T01:49:47;7.22;;;4.22;;
36205;SDS011;22242;48.796;9.930;2023-03-16T01:52:23;5.72;;;4.32;;
36205;SDS011;22242;48.796;9.930;2023-03-16T01:54:55;6.25;;;4.32;;
36205;SDS011;22242;48.796;9.930;2023-03-16T01:57:26;5.25;;;4.18;;
36205;SDS011;22242;48.796;9.930;2023-03-16T01:59:58;6.03;;;4.72;;
36205;SDS011;22242;48.796;9.930;2023-03-16T02:02:39;8.27;;;5.15;;
36205;SDS011;22242;48.796;9.930;2023-03-16T02:05:19;8.77;;;4.65;;
36205;SDS011;22242;48.796;9.930;2023-03-16T02:07:50;6.60;;;5.32;;
36205;SDS011;22242;48.796;9.930;2023-03-16T02:10:25;9.20;;;5.28;;
36205;SDS011;22242;48.796;9.930;2023-03-16T02:12:54;8.75;;;5.40;;
36205;SDS011;22242;48.796;9.930;2023-03-16T02:15:22;7.05;;;5.35;;
36205;SDS011;22242;48.796;9.930;2023-03-16T02:17:49;6.85;;;4.70;;
36205;SDS011;22242;48.796;9.930;2023-03-16T02:20:21;4.43;;;3.83;;
36205;SDS011;22242;48.796;9.930;2023-03-16T02:22:57;9.02;;;5.60;;
36205;SDS011;22242;48.796;9.930;2023-03-16T02:25:27;9.23;;;5.72;;
36205;SDS011;22242;48.796;9.930;2023-03-16T02:28:03;7.07;;;5.15;;
36205;SDS011;22242;48.796;9.930;2023-03-16T02:30:42;10.02;;;5.80;;
36205;SDS011;22242;48.796;9.930;2023-03-16T02:33:09;14.85;;;5.97;;
36205;SDS011;22242;48.796;9.930;2023-03-16T02:35:37;10.98;;;5.72;;
36205;SDS011;22242;48.796;9.930;2023-03-16T02:38:04;9.60;;;5.75;;
36205;SDS011;22242;48.796;9.930;2023-03-16T02:40:54;12.02;;;6.15;;
36205;SDS011;22242;48.796;9.930;2023-03-16T02:43:25;8.25;;;5.38;;
36205;SDS011;22242;48.796;9.930;2023-03-16T02:46:19;10.45;;;5.75;;
36205;SDS011;22242;48.796;9.930;2023-03-16T02:48:52;10.75;;;6.63;;
36205;SDS011;22242;48.796;9.930;2023-03-16T02:51:27;9.55;;;6.15;;
36205;SDS011;22242;48.796;9.930;2023-03-16T02:53:54;11.52;;;6.18;;
36205;SDS011;22242;48.796;9.930;2023-03-16T02:56:22;7.18;;;5.18;;
36205;SDS011;22242;48.796;9.930;2023-03-16T02:58:50;6.95;;;4.93;;
36205;SDS011;22242;48.796;9.930;2023-03-16T03:01:20;8.35;;;5.72;;
36205;SDS011;22242;48.796;9.930;2023-03-16T03:03:47;9.40;;;5.55;;
36205;SDS011;22242;48.796;9.930;2023-03-16T03:06:14;10.13;;;6.03;;
36205;SDS011;22242;48.796;9.930;2023-03-16T03:08:41;8.23;;;5.97;;
36205;SDS011;22242;48.796;9.930;2023-03-16T03:11:08;10.88;;;6.15;;
36205;SDS011;22242;48.796;9.930;2023-03-16T03:13:35;9.88;;;5.70;;
36205;SDS011;22242;48.796;9.930;2023-03-16T03:16:06;8.45;;;5.70;;
36205;SDS011;22242;48.796;9.930;2023-03-16T03:18:35;10.27;;;6.20;;
36205;SDS011;22242;48.796;9.930;2023-03-16T03:21:02;10.60;;;6.70;;
36205;SDS011;22242;48.796;9.930;2023-03-16T03:23:29;12.70;;;6.68;;
36205;SDS011;22242;48.796;9.930;2023-03-16T03:25:58;12.48;;;6.60;;
36205;SDS011;22242;48.796;9.930;2023-03-16T03:28:27;11.38;;;6.85;;
36205;SDS011;22242;48.796;9.930;2023-03-16T03:30:54;13.38;;;7.75;;
36205;SDS011;22242;48.796;9.930;2023-03-16T03:33:22;14.98;;;7.47;;
36205;SDS011;22242;48.796;9.930;2023-03-16T03:35:54;15.30;;;8.18;;
36205;SDS011;22242;48.796;9.930;2023-03-16T03:38:22;12.60;;;7.72;;
36205;SDS011;22242;48.796;9.930;2023-03-16T03:40:50;15.70;;;9.05;;
36205;SDS011;22242;48.796;9.930;2023-03-16T03:43:18;15.63;;;8.80;;
36205;SDS011;22242;48.796;9.930;2023-03-16T03:45:47;14.95;;;8.70;;
36205;SDS011;22242;48.796;9.930;2023-03-16T03:48:16;15.38;;;9.27;;
36205;SDS011;22242;48.796;9.930;2023-03-16T03:50:43;14.63;;;7.97;;
36205;SDS011;22242;48.796;9.930;2023-03-16T03:53:25;12.80;;;7.80;;
36205;SDS011;22242;48.796;9.930;2023-03-16T03:56:19;12.60;;;7.82;;
36205;SDS011;22242;48.796;9.930;2023-03-16T03:58:46;11.55;;;6.95;;
36205;SDS011;22242;48.796;9.930;2023-03-16T04:01:21;11.32;;;7.07;;
36205;SDS011;22242;48.796;9.930;2023-03-16T04:03:48;11.50;;;7.18;;
36205;SDS011;22242;48.796;9.930;2023-03-16T04:06:15;11.98;;;6.85;;
36205;SDS011;22242;48.796;9.930;2023-03-16T04:08:44;10.77;;;7.13;;
36205;SDS011;22242;48.796;9.930;2023-03-16T04:11:16;11.13;;;6.72;;
36205;SDS011;22242;48.796;9.930;2023-03-16T04:13:43;15.45;;;7.18;;
36205;SDS011;22242;48.796;9.930;2023-03-16T04:16:10;13.35;;;7.15;;
36205;SDS011;22242;48.796;9.930;2023-03-16T04:18:42;13.90;;;7.00;;
36205;SDS011;22242;48.796;9.930;2023-03-16T04:21:11;12.18;;;7.45;;
36205;SDS011;22242;48.796;9.930;2023-03-16T04:23:44;10.82;;;6.45;;
36205;SDS011;22242;48.796;9.930;2023-03-16T04:26:11;7.88;;;4.63;;
36205;SDS011;22242;48.796;9.930;2023-03-16T04:28:42;14.07;;;6.97;;
36205;SDS011;22242;48.796;9.930;2023-03-16T04:31:12;13.50;;;7.65;;
36205;SDS011;22242;48.796;9.930;2023-03-16T04:33:42;10.55;;;6.68;;
36205;SDS011;22242;48.796;9.930;2023-03-16T04:36:10;12.68;;;7.22;;
36205;SDS011;22242;48.796;9.930;2023-03-16T04:38:38;12.20;;;7.40;;
36205;SDS011;22242;48.796;9.930;2023-03-16T04:41:09;15.07;;;8.48;;
36205;SDS011;22242;48.796;9.930;2023-03-16T04:43:42;12.40;;;6.93;;
36205;SDS011;22242;48.796;9.930;2023-03-16T04:46:17;11.70;;;6.75;;
36205;SDS011;22242;48.796;9.930;2023-03-16T04:48:44;13.35;;;7.53;;
36205;SDS011;22242;48.796;9.930;2023-03-16T04:51:11;12.52;;;7.63;;
36205;SDS011;22242;48.796;9.930;2023-03-16T04:56:20;12.18;;;7.20;;
36205;SDS011;22242;48.796;9.930;2023-03-16T04:58:53;14.75;;;7.88;;
36205;SDS011;22242;48.796;9.930;2023-03-16T05:01:22;14.32;;;8.02;;
36205;SDS011;22242;48.796;9.930;2023-03-16T05:03:54;14.57;;;7.18;;
36205;SDS011;22242;48.796;9.930;2023-03-16T05:06:21;14.10;;;8.48;;
36205;SDS011;22242;48.796;9.930;2023-03-16T05:08:48;10.90;;;7.30;;
36205;SDS011;22242;48.796;9.930;2023-03-16T05:11:15;15.48;;;9.93;;
36205;SDS011;22242;48.796;9.930;2023-03-16T05:13:53;15.68;;;8.88;;
36205;SDS011;22242;48.796;9.930;2023-03-16T05:16:20;16.85;;;9.93;;
36205;SDS011;22242;48.796;9.930;2023-03-16T05:18:48;14.60;;;9.20;;
36205;SDS011;22242;48.796;9.930;2023-03-16T05:21:17;17.20;;;9.55;;
36205;SDS011;22242;48.796;9.930;2023-03-16T05:23:58;15.05;;;9.75;;
36205;SDS011;22242;48.796;9.930;2023-03-16T05:26:25;16.85;;;9.90;;
36205;SDS011;22242;48.796;9.930;2023-03-16T05:28:54;14.38;;;8.63;;
36205;SDS011;22242;48.796;9.930;2023-03-16T05:31:24;15.45;;;9.10;;
36205;SDS011;22242;48.796;9.930;2023-03-16T05:33:55;15.77;;;9.65;;
36205;SDS011;22242;48.796;9.930;2023-03-16T05:36:22;17.80;;;9.30;;
36205;SDS011;22242;48.796;9.930;2023-03-16T05:38:53;17.30;;;9.35;;
36205;SDS011;22242;48.796;9.930;2023-03-16T05:41:40;16.33;;;9.15;;
36205;SDS011;22242;48.796;9.930;2023-03-16T05:44:29;18.15;;;8.70;;
36205;SDS011;22242;48.796;9.930;2023-03-16T05:47:05;14.07;;;8.60;;
36205;SDS011;22242;48.796;9.930;2023-03-16T05:49:37;16.50;;;8.32;;
36205;SDS011;22242;48.796;9.930;2023-03-16T05:52:09;15.50;;;9.15;;
36205;SDS011;22242;48.796;9.930;2023-03-16T05:54:36;16.63;;;8.35;;
36205;SDS011;22242;48.796;9.930;2023-03-16T05:57:04;13.38;;;8.57;;
36205;SDS011;22242;48.796;9.930;2023-03-16T05:59:33;16.02;;;8.90;;
36205;SDS011;22242;48.796;9.930;2023-03-16T06:02:02;16.02;;;8.48;;
36205;SDS011;22242;48.796;9.930;2023-03-16T06:04:29;13.80;;;7.90;;
36205;SDS011;22242;48.796;9.930;2023-03-16T06:06:57;12.75;;;8.15;;
36205;SDS011;22242;48.796;9.930;2023-03-16T06:09:27;12.93;;;7.57;;
36205;SDS011;22242;48.796;9.930;2023-03-16T06:11:54;13.27;;;7.18;;
36205;SDS011;22242;48.796;9.930;2023-03-16T06:14:21;13.13;;;7.88;;
36205;SDS011;22242;48.796;9.930;2023-03-16T06:16:51;10.10;;;6.78;;
36205;SDS011;22242;48.796;9.930;2023-03-16T06:19:18;9.73;;;6.65;;
36205;SDS011;22242;48.796;9.930;2023-03-16T06:21:50;9.80;;;6.60;;
36205;SDS011;22242;48.796;9.930;2023-03-16T06:24:17;11.20;;;7.43;;
36205;SDS011;22242;48.796;9.930;2023-03-16T06:26:45;13.50;;;7.07;;
36205;SDS011;22242;48.796;9.930;2023-03-16T06:29:12;10.68;;;7.25;;
36205;SDS011;22242;48.796;9.930;2023-03-16T06:31:40;10.95;;;7.03;;
36205;SDS011;22242;48.796;9.930;2023-03-16T06:34:10;12.13;;;6.50;;
36205;SDS011;22242;48.796;9.930;2023-03-16T06:36:37;11.85;;;7.30;;
36205;SDS011;22242;48.796;9.930;2023-03-16T06:39:08;11.70;;;7.10;;
36205;SDS011;22242;48.796;9.930;2023-03-16T06:41:40;11.50;;;6.40;;
36205;SDS011;22242;48.796;9.930;2023-03-16T06:44:11;14.05;;;6.95;;
36205;SDS011;22242;48.796;9.930;2023-03-16T06:46:49;8.90;;;6.20;;
36205;SDS011;22242;48.796;9.930;2023-03-16T06:49:17;9.80;;;6.63;;
36205;SDS011;22242;48.796;9.930;2023-03-16T06:51:45;9.45;;;5.93;;
36205;SDS011;22242;48.796;9.930;2023-03-16T06:54:12;7.05;;;4.97;;
36205;SDS011;22242;48.796;9.930;2023-03-16T06:56:39;9.38;;;5.43;;
36205;SDS011;22242;48.796;9.930;2023-03-16T06:59:06;9.55;;;6.00;;
36205;SDS011;22242;48.796;9.930;2023-03-16T07:01:35;11.77;;;6.55;;
36205;SDS011;22242;48.796;9.930;2023-03-16T07:04:02;8.80;;;5.72;;
36205;SDS011;22242;48.796;9.930;2023-03-16T07:06:33;11.75;;;6.03;;
36205;SDS011;22242;48.796;9.930;2023-03-16T07:09:00;10.38;;;5.63;;
36205;SDS011;22242;48.796;9.930;2023-03-16T07:11:29;7.38;;;5.18;;
36205;SDS011;22242;48.796;9.930;2023-03-16T07:13:57;8.23;;;6.18;;
36205;SDS011;22242;48.796;9.930;2023-03-16T07:16:25;8.68;;;5.38;;
36205;SDS011;22242;48.796;9.930;2023-03-16T07:18:55;7.85;;;5.75;;
36205;SDS011;22242;48.796;9.930;2023-03-16T07:21:23;8.85;;;6.15;;
36205;SDS011;22242;48.796;9.930;2023-03-16T07:23:51;8.30;;;6.07;;
36205;SDS011;22242;48.796;9.930;2023-03-16T07:26:23;8.00;;;5.10;;
36205;SDS011;22242;48.796;9.930;2023-03-16T07:28:57;6.85;;;5.70;;
36205;SDS011;22242;48.796;9.930;2023-03-16T07:31:24;8.63;;;5.97;;
36205;SDS011;22242;48.796;9.930;2023-03-16T07:33:53;7.40;;;5.25;;
36205;SDS011;22242;48.796;9.930;2023-03-16T07:36:30;7.53;;;5.28;;
36205;SDS011;22242;48.796;9.930;2023-03-16T07:39:01;10.65;;;6.05;;
36205;SDS011;22242;48.796;9.930;2023-03-16T07:41:28;6.30;;;4.88;;
36205;SDS011;22242;48.796;9.930;2023-03-16T07:44:06;7.75;;;5.28;;
36205;SDS011;22242;48.796;9.930;2023-03-16T07:46:34;7.93;;;5.30;;
36205;SDS011;22242;48.796;9.930;2023-03-16T07:49:01;6.13;;;4.68;;
36205;SDS011;22242;48.796;9.930;2023-03-16T07:51:28;6.70;;;3.90;;
36205;SDS011;22242;48.796;9.930;2023-03-16T07:53:56;6.82;;;5.10;;
36205;SDS011;22242;48.796;9.930;2023-03-16T07:56:29;5.70;;;4.20;;
36205;SDS011;22242;48.796;9.930;2023-03-16T07:58:59;5.95;;;5.15;;
36205;SDS011;22242;48.796;9.930;2023-03-16T08:01:28;5.25;;;4.40;;
36205;SDS011;22242;48.796;9.930;2023-03-16T08:03:56;5.25;;;4.32;;
36205;SDS011;22242;48.796;9.930;2023-03-16T08:06:24;6.50;;;4.30;;
36205;SDS011;22242;48.796;9.930;2023-03-16T08:08:52;6.32;;;4.88;;
36205;SDS011;22242;48.796;9.930;2023-03-16T08:11:27;8.93;;;4.57;;
36205;SDS011;22242;48.796;9.930;2023-03-16T08:13:59;5.40;;;4.10;;
36205;SDS011;22242;48.796;9.930;2023-03-16T08:16:45;5.63;;;4.35;;
36205;SDS011;22242;48.796;9.930;2023-03-16T08:19:12;5.15;;;4.22;;
36205;SDS011;22242;48.796;9.930;2023-03-16T08:21:39;7.03;;;4.85;;
36205;SDS011;22242;48.796;9.930;2023-03-16T08:24:08;6.47;;;4.65;;
36205;SDS011;22242;48.796;9.930;2023-03-16T08:26:38;7.07;;;4.60;;
36205;SDS011;22242;48.796;9.930;2023-03-16T08:29:06;6.53;;;4.72;;
36205;SDS011;22242;48.796;9.930;2023-03-16T08:31:35;5.25;;;4.05;;
36205;SDS011;22242;48.796;9.930;2023-03-16T08:34:10;4.65;;;4.13;;
36205;SDS011;22242;48.796;9.930;2023-03-16T08:36:41;5.72;;;4.57;;
36205;SDS011;22242;48.796;9.930;2023-03-16T08:39:10;6.05;;;4.63;;
36205;SDS011;22242;48.796;9.930;2023-03-16T08:41:42;6.35;;;4.25;;
36205;SDS011;22242;48.796;9.930;2023-03-16T08:44:42;5.88;;;4.60;;
36205;SDS011;22242;48.796;9.930;2023-03-16T08:47:10;5.00;;;4.50;;
36205;SDS011;22242;48.796;9.930;2023-03-16T08:49:41;6.00;;;4.63;;
36205;SDS011;22242;48.796;9.930;2023-03-16T08:52:12;4.95;;;4.45;;
36205;SDS011;22242;48.796;9.930;2023-03-16T08:54:40;5.43;;;4.22;;
36205;SDS011;22242;48.796;9.930;2023-03-16T08:57:09;6.80;;;4.68;;
36205;SDS011;22242;48.796;9.930;2023-03-16T08:59:36;5.05;;;3.97;;
36205;SDS011;22242;48.796;9.930;2023-03-16T09:02:03;4.28;;;3.83;;
36205;SDS011;22242;48.796;9.930;2023-03-16T09:04:31;7.68;;;4.60;;
36205;SDS011;22242;48.796;9.930;2023-03-16T09:06:58;7.13;;;5.13;;
36205;SDS011;22242;48.796;9.930;2023-03-16T09:09:25;6.95;;;4.40;;
36205;SDS011;22242;48.796;9.930;2023-03-16T09:11:53;7.40;;;5.20;;
36205;SDS011;22242;48.796;9.930;2023-03-16T09:14:21;7.40;;;4.82;;
36205;SDS011;22242;48.796;9.930;2023-03-16T09:16:49;9.45;;;4.90;;
36205;SDS011;22242;48.796;9.930;2023-03-16T09:19:16;6.30;;;4.60;;
36205;SDS011;22242;48.796;9.930;2023-03-16T09:21:43;5.53;;;4.65;;
36205;SDS011;22242;48.796;9.930;2023-03-16T09:24:11;6.00;;;4.60;;
36205;SDS011;22242;48.796;9.930;2023-03-16T09:26:38;6.40;;;4.60;;
36205;SDS011;22242;48.796;9.930;2023-03-16T09:29:06;6.85;;;4.35;;
36205;SDS011;22242;48.796;9.930;2023-03-16T09:31:35;5.80;;;4.72;;
36205;SDS011;22242;48.796;9.930;2023-03-16T09:34:02;6.65;;;4.38;;
36205;SDS011;22242;48.796;9.930;2023-03-16T09:36:30;7.10;;;4.38;;
36205;SDS011;22242;48.796;9.930;2023-03-16T09:38:57;6.97;;;4.07;;
36205;SDS011;22242;48.796;9.930;2023-03-16T09:41:29;4.82;;;3.85;;
36205;SDS011;22242;48.796;9.930;2023-03-16T09:44:08;6.68;;;4.22;;
36205;SDS011;22242;48.796;9.930;2023-03-16T09:46:44;5.05;;;3.97;;
36205;SDS011;22242;48.796;9.930;2023-03-16T09:49:14;5.40;;;4.03;;
36205;SDS011;22242;48.796;9.930;2023-03-16T09:51:46;4.68;;;4.15;;
36205;SDS011;22242;48.796;9.930;2023-03-16T09:54:19;4.45;;;3.58;;
36205;SDS011;22242;48.796;9.930;2023-03-16T09:56:51;4.82;;;3.70;;
36205;SDS011;22242;48.796;9.930;2023-03-16T09:59:20;4.20;;;3.65;;
36205;SDS011;22242;48.796;9.930;2023-03-16T10:01:51;4.78;;;3.55;;
36205;SDS011;22242;48.796;9.930;2023-03-16T10:04:33;4.88;;;3.30;;
36205;SDS011;22242;48.796;9.930;2023-03-16T10:07:12;5.45;;;3.38;;
36205;SDS011;22242;48.796;9.930;2023-03-16T10:09:51;3.45;;;3.15;;
36205;SDS011;22242;48.796;9.930;2023-03-16T10:12:22;3.60;;;2.90;;
36205;SDS011;22242;48.796;9.930;2023-03-16T10:14:57;4.32;;;3.50;;
36205;SDS011;22242;48.796;9.930;2023-03-16T10:20:03;4.65;;;3.25;;
36205;SDS011;22242;48.796;9.930;2023-03-16T10:22:33;4.43;;;3.45;;
36205;SDS011;22242;48.796;9.930;2023-03-16T10:25:06;8.18;;;4.00;;
36205;SDS011;22242;48.796;9.930;2023-03-16T10:30:09;6.45;;;3.10;;
36205;SDS011;22242;48.796;9.930;2023-03-16T10:32:46;4.10;;;3.10;;
36205;SDS011;22242;48.796;9.930;2023-03-16T10:35:18;4.43;;;3.20;;
36205;SDS011;22242;48.796;9.930;2023-03-16T10:37:54;3.17;;;2.70;;
36205;SDS011;22242;48.796;9.930;2023-03-16T10:40:23;5.60;;;3.63;;
36205;SDS011;22242;48.796;9.930;2023-03-16T10:42:50;6.03;;;3.33;;
36205;SDS011;22242;48.796;9.930;2023-03-16T10:45:22;6.93;;;3.50;;
36205;SDS011;22242;48.796;9.930;2023-03-16T10:47:54;3.33;;;3.00;;
36205;SDS011;22242;48.796;9.930;2023-03-16T10:50:31;5.43;;;3.55;;
36205;SDS011;22242;48.796;9.930;2023-03-16T10:52:58;5.43;;;3.35;;
36205;SDS011;22242;48.796;9.930;2023-03-16T10:55:27;4.57;;;3.50;;
36205;SDS011;22242;48.796;9.930;2023-03-16T10:57:57;4.18;;;3.28;;
36205;SDS011;22242;48.796;9.930;2023-03-16T11:00:26;4.22;;;3.10;;
36205;SDS011;22242;48.796;9.930;2023-03-16T11:02:58;3.78;;;2.88;;
36205;SDS011;22242;48.796;9.930;2023-03-16T11:05:28;5.43;;;3.55;;
36205;SDS011;22242;48.796;9.930;2023-03-16T11:08:00;4.57;;;3.25;;
36205;SDS011;22242;48.796;9.930;2023-03-16T11:10:34;6.00;;;2.70;;
36205;SDS011;22242;48.796;9.930;2023-03-16T11:13:05;5.18;;;2.72;;
36205;SDS011;22242;48.796;9.930;2023-03-16T11:15:39;4.57;;;2.60;;
36205;SDS011;22242;48.796;9.930;2023-03-16T11:18:24;5.50;;;2.90;;
36205;SDS011;22242;48.796;9.930;2023-03-16T11:20:55;3.88;;;2.95;;
36205;SDS011;22242;48.796;9.930;2023-03-16T11:23:26;3.08;;;2.55;;
36205;SDS011;22242;48.796;9.930;2023-03-16T11:28:27;3.40;;;2.65;;
36205;SDS011;22242;48.796;9.930;2023-03-16T11:31:03;3.03;;;2.65;;
36205;SDS011;22242;48.796;9.930;2023-03-16T11:33:40;3.28;;;2.50;;
36205;SDS011;22242;48.796;9.930;2023-03-16T11:36:12;4.97;;;2.83;;
36205;SDS011;22242;48.796;9.930;2023-03-16T11:38:56;3.85;;;2.97;;
36205;SDS011;22242;48.796;9.930;2023-03-16T11:41:35;3.80;;;2.42;;
36205;SDS011;22242;48.796;9.930;2023-03-16T11:44:13;4.50;;;2.55;;
36205;SDS011;22242;48.796;9.930;2023-03-16T11:46:48;3.00;;;2.70;;
36205;SDS011;22242;48.796;9.930;2023-03-16T11:49:26;4.57;;;2.58;;
36205;SDS011;22242;48.796;9.930;2023-03-16T11:52:03;3.83;;;2.95;;
36205;SDS011;22242;48.796;9.930;2023-03-16T11:54:39;4.05;;;2.75;;
36205;SDS011;22242;48.796;9.930;2023-03-16T11:57:20;3.67;;;2.90;;
36205;SDS011;22242;48.796;9.930;2023-03-16T12:00:09;4.45;;;2.80;;
36205;SDS011;22242;48.796;9.930;2023-03-16T12:02:53;5.18;;;2.42;;
36205;SDS011;22242;48.796;9.930;2023-03-16T12:05:55;6.30;;;2.47;;
36205;SDS011;22242;48.796;9.930;2023-03-16T12:08:30;3.08;;;2.78;;
36205;SDS011;22242;48.796;9.930;2023-03-16T12:11:07;3.88;;;2.53;;
36205;SDS011;22242;48.796;9.930;2023-03-16T12:16:31;5.72;;;3.50;;
36205;SDS011;22242;48.796;9.930;2023-03-16T12:19:08;5.80;;;3.50;;
36205;SDS011;22242;48.796;9.930;2023-03-16T12:21:43;6.03;;;3.58;;
36205;SDS011;22242;48.796;9.930;2023-03-16T12:24:13;12.90;;;4.28;;
36205;SDS011;22242;48.796;9.930;2023-03-16T12:26:43;10.43;;;3.67;;
36205;SDS011;22242;48.796;9.930;2023-03-16T12:29:16;5.63;;;3.60;;
36205;SDS011;22242;48.796;9.930;2023-03-16T12:31:52;5.43;;;3.30;;
36205;SDS011;22242;48.796;9.930;2023-03-16T12:34:24;4.87;;;3.07;;
36205;SDS011;22242;48.796;9.930;2023-03-16T12:37:08;3.97;;;3.20;;
36205;SDS011;22242;48.796;9.930;2023-03-16T12:39:53;5.22;;;3.20;;
36205;SDS011;22242;48.796;9.930;2023-03-16T12:42:43;5.82;;;4.03;;
36205;SDS011;22242;48.796;9.930;2023-03-16T12:45:23;5.65;;;4.50;;
36205;SDS011;22242;48.796;9.930;2023-03-16T12:47:57;5.15;;;3.95;;
36205;SDS011;22242;48.796;9.930;2023-03-16T12:50:30;5.93;;;3.60;;
36205;SDS011;22242;48.796;9.930;2023-03-16T12:52:59;5.88;;;3.85;;
36205;SDS011;22242;48.796;9.930;2023-03-16T12:55:38;6.30;;;4.40;;
36205;SDS011;22242;48.796;9.930;2023-03-16T12:58:08;6.93;;;4.45;;
36205;SDS011;22242;48.796;9.930;2023-03-16T13:00:37;6.40;;;3.97;;
36205;SDS011;22242;48.796;9.930;2023-03-16T13:03:10;7.32;;;4.68;;
36205;SDS011;22242;48.796;9.930;2023-03-16T13:05:43;5.78;;;4.40;;
36205;SDS011;22242;48.796;9.930;2023-03-16T13:08:14;4.72;;;3.83;;
36205;SDS011;22242;48.796;9.930;2023-03-16T13:10:57;7.03;;;3.97;;
36205;SDS011;22242;48.796;9.930;2023-03-16T13:13:25;5.57;;;3.80;;
36205;SDS011;22242;48.796;9.930;2023-03-16T13:16:00;9.07;;;4.18;;
36205;SDS011;22242;48.796;9.930;2023-03-16T13:18:33;7.10;;;4.93;;
36205;SDS011;22242;48.796;9.930;2023-03-16T13:21:13;8.25;;;5.90;;
36205;SDS011;22242;48.796;9.930;2023-03-16T13:23:50;5.97;;;4.53;;
36205;SDS011;22242;48.796;9.930;2023-03-16T13:26:22;6.80;;;4.88;;
36205;SDS011;22242;48.796;9.930;2023-03-16T13:29:05;6.90;;;4.82;;
36205;SDS011;22242;48.796;9.930;2023-03-16T13:31:47;6.43;;;4.47;;
36205;SDS011;22242;48.796;9.930;2023-03-16T13:34:18;7.28;;;4.70;;
36205;SDS011;22242;48.796;9.930;2023-03-16T13:36:47;6.15;;;4.88;;
36205;SDS011;22242;48.796;9.930;2023-03-16T13:39:20;6.82;;;4.60;;
36205;SDS011;22242;48.796;9.930;2023-03-16T13:41:56;8.48;;;4.13;;
36205;SDS011;22242;48.796;9.930;2023-03-16T13:44:25;6.13;;;4.28;;
36205;SDS011;22242;48.796;9.930;2023-03-16T13:46:53;7.72;;;4.63;;
36205;SDS011;22242;48.796;9.930;2023-03-16T13:49:20;5.75;;;4.72;;
36205;SDS011;22242;48.796;9.930;2023-03-16T13:51:47;5.20;;;3.80;;
36205;SDS011;22242;48.796;9.930;2023-03-16T13:54:21;6.85;;;4.35;;
36205;SDS011;22242;48.796;9.930;2023-03-16T13:56:51;4.97;;;4.47;;
36205;SDS011;22242;48.796;9.930;2023-03-16T13:59:21;6.60;;;4.35;;
36205;SDS011;22242;48.796;9.930;2023-03-16T14:01:53;6.35;;;4.53;;
36205;SDS011;22242;48.796;9.930;2023-03-16T14:04:22;6.97;;;4.32;;
36205;SDS011;22242;48.796;9.930;2023-03-16T14:06:54;7.85;;;4.88;;
36205;SDS011;22242;48.796;9.930;2023-03-16T14:09:25;5.13;;;4.20;;
36205;SDS011;22242;48.796;9.930;2023-03-16T14:11:55;5.05;;;4.03;;
36205;SDS011;22242;48.796;9.930;2023-03-16T14:14:23;5.35;;;3.72;;
36205;SDS011;22242;48.796;9.930;2023-03-16T14:16:53;4.95;;;3.90;;
36205;SDS011;22242;48.796;9.930;2023-03-16T14:19:27;5.90;;;4.00;;
36205;SDS011;22242;48.796;9.930;2023-03-16T14:22:00;4.35;;;3.75;;
36205;SDS011;22242;48.796;9.930;2023-03-16T14:24:30;5.88;;;3.78;;
36205;SDS011;22242;48.796;9.930;2023-03-16T14:27:08;5.38;;;3.58;;
36205;SDS011;22242;48.796;9.930;2023-03-16T14:29:42;6.47;;;4.47;;
36205;SDS011;22242;48.796;9.930;2023-03-16T14:32:18;4.72;;;4.00;;
36205;SDS011;22242;48.796;9.930;2023-03-16T14:34:48;6.22;;;4.57;;
36205;SDS011;22242;48.796;9.930;2023-03-16T14:37:15;6.40;;;3.55;;
36205;SDS011;22242;48.796;9.930;2023-03-16T14:39:45;8.05;;;4.00;;
36205;SDS011;22242;48.796;9.930;2023-03-16T14:42:25;5.82;;;3.85;;
36205;SDS011;22242;48.796;9.930;2023-03-16T14:44:53;7.03;;;4.03;;
36205;SDS011;22242;48.796;9.930;2023-03-16T14:47:23;6.47;;;4.45;;
36205;SDS011;22242;48.796;9.930;2023-03-16T14:49:53;6.60;;;4.00;;
36205;SDS011;22242;48.796;9.930;2023-03-16T14:52:23;6.45;;;4.65;;
36205;SDS011;22242;48.796;9.930;2023-03-16T14:54:55;5.65;;;4.40;;
36205;SDS011;22242;48.796;9.930;2023-03-16T14:57:22;5.93;;;4.45;;
36205;SDS011;22242;48.796;9.930;2023-03-16T14:59:50;10.45;;;4.10;;
36205;SDS011;22242;48.796;9.930;2023-03-16T15:02:18;5.93;;;4.30;;
36205;SDS011;22242;48.796;9.930;2023-03-16T15:04:49;6.18;;;4.47;;
36205;SDS011;22242;48.796;9.930;2023-03-16T15:07:19;5.57;;;4.50;;
36205;SDS011;22242;48.796;9.930;2023-03-16T15:09:49;6.47;;;4.40;;
36205;SDS011;22242;48.796;9.930;2023-03-16T15:12:19;6.03;;;4.35;;
36205;SDS011;22242;48.796;9.930;2023-03-16T15:14:49;5.97;;;4.78;;
36205;SDS011;22242;48.796;9.930;2023-03-16T15:17:34;6.18;;;4.45;;
36205;SDS011;22242;48.796;9.930;2023-03-16T15:20:02;6.05;;;4.22;;